Montpelier, Indiana
Current Conditions -  °F | °C
As of 1:15 PM on Saturday 25 Oct 2014 (Local Time) from KMZZ Reporting Station
Clear Clear  
Wind Chill: 70°   Ceiling: Unl
Heat Index: 70°   Visibility: 7mi
Dew Point: 53°   Wind: 15mph
Humidity: 55%   Direction: 280°W
Pressure: 29.93"   Gusts: NA
Location:  40.55°N, 85.28°W
Report Text: KMZZ 251715Z AUTO 28013KT 7SM CLR 21/12 A2993 RMK AO2 T02090115
Loading
Personal Weather Stations






























Interactive Weather Map
Tropical Storm Tracking
New forecast layout! Learn more

10-Day Weather Forecast

Advertisements
Track Severe Weather on mobile